Latest Weather Observations for Tuggeranong

IDN60901

Issued at 12:31 pm EST Tuesday 7 July 2020 (issued every 10 minutes, with the page automatically refreshed every 10 minutes)

About weather observations | Map of Canberra area stations | Latest observations for Canberra area | Other Formats
Station Details ID: 070339 Name: TUGGERANONG (ISABELLA PLAINS) AWS Lat: -35.42 Lon: 149.09 Height: 586.7 m
Data from the previous 72 hours. | See also: Recent months at Tuggeranong
Date/Time
EST
Temp
°C
App
Temp
°C
Dew
Point
°C
Rel
Hum
%
Delta-T
°C
Wind Press
QNH
hPa
Press
MSL
hPa
Rain since
9am
mm
Dir  Spd
km/h
Gust
km/h
Spd
kts
Gust
kts
07/12:30pm 11.3 6.3 3.6 59 3.5 S 19 26 10 14 1029.6 1030.8 0.0
07/12:00pm 10.5 5.4 3.1 60 3.3 S 19 32 10 17 1030.3 1031.5 0.0
07/11:30am 10.0 4.7 3.1 62 3.1 SSW 20 32 11 17 1030.6 1031.8 0.0
07/11:00am 9.6 3.9 3.1 64 2.9 S 22 33 12 18 1030.8 1032.0 0.0
07/10:30am 9.9 4.8 3.9 66 2.7 SSE 20 30 11 16 1031.0 1032.2 0.0
07/10:00am 9.1 4.4 3.3 67 2.6 SSE 17 28 9 15 1030.8 1032.0 0.0
07/09:30am 8.5 3.2 3.1 69 2.4 SSE 20 30 11 16 1030.7 1031.9 0.0
07/09:00am 7.7 4.2 3.7 76 1.8 S 11 24 6 13 1030.6 1031.8 0.0
07/08:30am 5.2 2.4 5.2 100 0.0 SSW 9 20 5 11 1030.5 1031.7 0.0
07/08:00am 2.5 0.5 2.5 100 0.0 SW 2 9 1 5 1030.3 1031.5 0.0
07/07:30am 1.3 -0.9 1.3 100 0.0 WNW 2 6 1 3 1030.2 1031.4 0.0
07/07:00am 1.2 -1.4 1.2 100 0.0 W 4 9 2 5 1029.9 1031.2 0.0
07/06:30am 1.1 -1.1 1.1 100 0.0 WSW 2 6 1 3 1029.8 1031.0 0.0
07/06:00am 1.0 -0.8 1.0 100 0.0 CALM 0 2 0 1 1029.6 1030.8 0.0
07/05:30am 0.6 -2.4 0.6 100 0.0 WNW 6 9 3 5 1029.3 1030.5 0.0
07/05:00am 0.7 -1.6 0.7 100 0.0 N 2 7 1 4 1029.2 1030.4 0.0
07/04:30am 0.6 -1.3 0.6 100 0.0 CALM 0 0 0 0 1029.2 1030.4 0.0
07/04:00am 0.9 -2.1 0.9 100 0.0 ESE 6 7 3 4 1029.1 1030.3 0.0
07/03:30am 1.3 -0.5 1.3 100 0.0 CALM 0 0 0 0 1029.2 1030.4 0.0
07/03:00am 1.6 -0.5 1.6 100 0.0 S 2 7 1 4 1029.3 1030.5 0.0
07/02:30am 1.7 -0.4 1.7 100 0.0 SW 2 7 1 4 1029.2 1030.4 0.0
07/02:00am 2.2 0.6 2.2 100 0.0 CALM 0 0 0 0 1029.1 1030.3 0.0
07/01:30am 2.3 -0.5 2.3 100 0.0 SSW 6 7 3 4 1029.3 1030.5 0.0
07/01:00am 2.6 1.0 2.6 100 0.0 CALM 0 6 0 3 1029.4 1030.6 0.0
07/12:30am 2.7 0.0 2.7 100 0.0 E 6 7 3 4 1029.6 1030.8 0.0
07/12:00am 2.7 0.0 2.7 100 0.0 E 6 9 3 5 1029.6 1030.8 0.0
 
Date/Time
EST
Temp
°C
App
Temp
°C
Dew
Point
°C
Rel
Hum
%
Delta-T
°C
Wind Press
QNH
hPa
Press
MSL
hPa
Rain since
9am
mm
Dir  Spd
km/h
Gust
km/h
Spd
kts
Gust
kts
06/11:30pm 2.8 1.2 2.7 99 0.0 CALM 0 0 0 0 1029.5 1030.7 0.0
06/11:00pm 3.1 1.6 3.0 99 0.0 CALM 0 0 0 0 1029.8 1031.0 0.0
06/10:30pm 3.4 0.8 3.3 99 0.0 NNE 6 7 3 4 1029.8 1031.0 0.0
06/10:00pm 3.6 0.9 3.5 99 0.0 ENE 7 9 4 5 1029.7 1030.9 0.0
06/09:30pm 4.0 1.5 3.9 99 0.0 ESE 6 9 3 5 1029.6 1030.8 0.0
06/09:00pm 4.5 2.1 4.4 99 0.0 ESE 6 7 3 4 1029.6 1030.8 0.0
06/08:30pm 4.6 2.2 4.5 99 0.0 ESE 6 7 3 4 1029.5 1030.7 0.0
06/08:00pm 4.8 2.3 4.7 99 0.0 SE 7 9 4 5 1029.5 1030.7 0.0
06/07:30pm 4.8 2.3 4.7 99 0.0 SE 7 9 4 5 1029.2 1030.4 0.0
06/07:00pm 5.0 2.7 4.7 98 0.1 NNE 6 9 3 5 1028.9 1030.1 0.0
06/06:30pm 5.0 3.9 4.9 99 0.0 CALM 0 0 0 0 1028.5 1029.7 0.0
06/06:00pm 5.1 3.6 4.8 98 0.1 NW 2 9 1 5 1028.2 1029.4 0.0
06/05:30pm 5.0 2.5 4.6 97 0.2 NNW 7 11 4 6 1027.8 1029.0 0.0
06/05:00pm 5.4 3.1 4.7 95 0.3 WNW 6 9 3 5 1027.4 1028.6 0.0
06/04:30pm 5.5 2.6 4.5 93 0.4 NNW 9 13 5 7 1027.2 1028.4 0.0
06/04:00pm 5.8 2.8 4.1 89 0.7 N 9 13 5 7 1027.2 1028.4 0.0
06/03:30pm 7.3 3.9 4.1 80 1.4 NW 11 15 6 8 1027.2 1028.4 0.0
06/03:00pm 8.2 5.2 4.0 75 1.9 NW 9 13 5 7 1027.0 1028.1 0.0
06/02:30pm 8.5 5.1 3.9 73 2.1 NW 11 15 6 8 1026.9 1028.0 0.0
06/02:00pm 8.6 5.6 4.0 73 2.1 NNW 9 13 5 7 1026.8 1027.9 0.0
06/01:30pm 8.5 5.4 3.8 72 2.1 NNW 9 13 5 7 1027.0 1028.1 0.0
06/01:00pm 8.1 5.1 4.1 76 1.8 NNE 9 13 5 7 1027.3 1028.5 0.0
06/12:30pm 7.4 4.3 3.8 78 1.6 N 9 13 5 7 1027.7 1028.9 0.0
06/12:00pm 6.8 3.8 4.3 84 1.1 N 9 15 5 8 1028.0 1029.2 0.0
06/11:30am 5.5 3.1 4.5 93 0.4 NNW 6 11 3 6 1028.5 1029.7 0.0
06/11:00am 4.3 2.7 4.3 100 0.0 N 2 9 1 5 1028.8 1030.0 0.0
06/10:30am 2.8 0.9 2.8 100 0.0 SSW 2 6 1 3 1029.0 1030.2 0.0
06/10:00am 2.5 0.5 2.5 100 0.0 WNW 2 7 1 4 1029.1 1030.3 0.0
06/09:30am 1.9 0.2 1.9 100 0.0 CALM 0 0 0 0 1029.2 1030.4 0.0
06/09:00am 1.4 -1.5 1.4 100 0.0 W 6 7 3 4 1029.1 1030.3 0.2
06/08:30am 1.3 -1.6 1.3 100 0.0 W 6 7 3 4 1028.9 1030.1 0.2
06/08:00am 1.4 -1.5 1.4 100 0.0 SE 6 9 3 5 1028.7 1029.9 0.2
06/07:30am 1.7 0.0 1.7 100 0.0 CALM 0 6 0 3 1028.4 1029.5 0.2
06/07:00am 1.9 0.2 1.9 100 0.0 CALM 0 0 0 0 1028.0 1029.2 0.2
06/06:30am 2.0 0.3 2.0 100 0.0 CALM 0 0 0 0 1027.6 1028.8 0.0
06/06:00am 2.1 0.4 2.1 100 0.0 CALM 0 6 0 3 1027.2 1028.4 0.0
06/05:30am 2.1 -0.7 2.1 100 0.0 NW 6 7 3 4 1027.0 1028.1 0.0
06/05:00am 2.4 0.8 2.4 100 0.0 CALM 0 0 0 0 1026.8 1027.9 0.0
06/04:30am 2.5 0.9 2.5 100 0.0 CALM 0 0 0 0 1026.7 1027.8 0.0
06/04:00am 2.7 1.1 2.7 100 0.0 CALM 0 0 0 0 1026.7 1027.8 0.0
06/03:30am 2.5 0.9 2.5 100 0.0 CALM 0 0 0 0 1026.8 1027.9 0.0
06/03:00am 1.6 -0.1 1.6 100 0.0 CALM 0 0 0 0 1026.6 1027.7 0.0
06/02:30am 1.0 -0.8 0.9 99 0.0 CALM 0 0 0 0 1026.6 1027.7 0.0
06/02:00am 0.2 -1.8 0.1 99 0.0 CALM 0 0 0 0 1026.7 1027.8 0.0
06/01:30am -0.8 -3.3 -0.9 99 0.0 ESE 2 7 1 4 1026.7 1027.8 0.0
06/01:00am -0.5 -2.6 -0.6 99 0.0 CALM 0 0 0 0 1026.6 1027.7 0.0
06/12:30am 0.2 -2.5 0.1 99 0.0 E 4 7 2 4 1026.7 1027.8 0.0
06/12:00am 0.1 -2.3 0.0 99 0.0 ESE 2 6 1 3 1026.8 1027.9 0.0
 
Date/Time
EST
Temp
°C
App
Temp
°C
Dew
Point
°C
Rel
Hum
%
Delta-T
°C
Wind Press
QNH
hPa
Press
MSL
hPa
Rain since
9am
mm
Dir  Spd
km/h
Gust
km/h
Spd
kts
Gust
kts
05/11:30pm 0.9 -1.0 0.8 99 0.0 CALM 0 0 0 0 1026.6 1027.7 0.0
05/11:00pm 0.9 -1.0 0.8 99 0.0 CALM 0 0 0 0 1026.3 1027.5 0.0
05/10:30pm 1.1 -0.7 1.0 99 0.0 CALM 0 0 0 0 1025.9 1027.1 0.0
05/10:00pm 1.7 -0.8 1.6 99 0.0 W 4 7 2 4 1025.7 1026.9 0.0
05/09:30pm 1.9 0.2 1.8 99 0.0 CALM 0 0 0 0 1025.6 1026.8 0.0
05/09:00pm 2.4 0.7 1.8 96 0.2 CALM 0 6 0 3 1025.2 1026.3 0.0
05/08:30pm 3.3 0.9 2.4 94 0.4 ENE 4 9 2 5 1025.0 1026.1 0.0
05/08:00pm 4.0 2.1 2.8 92 0.5 ENE 2 6 1 3 1024.5 1025.7 0.0
05/07:30pm 5.2 2.6 4.0 92 0.5 ENE 7 11 4 6 1024.2 1025.4 0.0
05/07:00pm 5.5 3.0 3.7 88 0.8 E 6 7 3 4 1023.8 1024.9 0.0
05/06:30pm 6.2 3.6 4.0 86 1.0 ESE 7 9 4 5 1023.6 1024.7 0.0
05/06:00pm 6.8 5.4 3.4 79 1.5 CALM 0 0 0 0 1023.1 1024.2 0.0
05/05:30pm 9.1 6.8 4.7 74 2.0 NE 6 7 3 4 1022.6 1023.7 0.0
05/05:00pm 10.4 7.9 4.8 68 2.6 NNW 7 13 4 7 1022.2 1023.3 0.0
05/04:30pm 11.7 8.8 4.7 62 3.3 NNW 9 13 5 7 1022.0 1023.1 0.0
05/04:00pm 12.7 9.4 4.7 58 3.8 NNW 11 15 6 8 1021.8 1022.9 0.0
05/03:30pm 13.2 9.7 3.6 52 4.5 NNW 11 17 6 9 1021.8 1022.9 0.0
05/03:00pm 14.1 11.3 2.0 44 5.5 NNW 6 9 3 5 1021.6 1022.7 0.0
05/02:30pm 13.6 10.5 1.3 43 5.5 WNW 7 9 4 5 1021.4 1022.5 0.0
05/02:00pm 13.2 9.7 1.2 44 5.3 W 9 13 5 7 1021.4 1022.5 0.0
05/01:30pm 13.1 10.1 1.8 46 5.0 WNW 7 13 4 7 1021.4 1022.5 0.0
05/01:00pm 11.9 8.7 1.0 47 4.7 SW 7 13 4 7 1021.7 1022.8 0.0
05/12:30pm 12.3 9.8 1.3 47 4.8 S 4 9 2 5 1022.0 1023.1 0.0
05/12:00pm 11.5 8.4 1.2 49 4.5 NNE 7 9 4 5 1022.5 1023.6 0.0
05/11:30am 11.0 8.6 2.1 54 3.9 NNW 4 7 2 4 1022.9 1024.0 0.0
05/11:00am 9.7 6.9 2.3 60 3.2 SW 6 9 3 5 1023.2 1024.3 0.0
05/10:30am 8.7 6.9 3.3 69 2.4 S 2 7 1 4 1023.2 1024.3 0.0
05/10:00am 7.6 4.8 3.1 73 2.0 W 7 11 4 6 1023.3 1024.4 0.0
05/09:30am 7.0 5.7 4.0 81 1.3 CALM 0 0 0 0 1023.3 1024.4 0.0
05/09:00am 3.3 1.6 2.0 91 0.5 CALM 0 0 0 0 1023.1 1024.2 0.0
05/08:30am 1.3 -0.5 1.2 99 0.0 CALM 0 0 0 0 1022.7 1023.9 0.0
05/08:00am -1.0 -3.1 -1.1 99 0.0 CALM 0 0 0 0 1022.3 1023.4 0.0
05/07:30am -1.5 -3.7 -1.6 99 0.0 CALM 0 0 0 0 1021.8 1022.9 0.0
05/07:00am -1.4 -3.6 -1.5 99 0.0 CALM 0 0 0 0 1021.6 1022.7 0.0
05/06:30am -1.2 -3.4 -1.5 98 0.1 CALM 0 0 0 0 1021.3 1022.4 0.0
05/06:00am -0.5 -2.6 -1.1 96 0.2 CALM 0 0 0 0 1020.8 1021.9 0.0
05/05:30am 0.6 -2.1 0.5 99 0.0 E 4 9 2 5 1020.6 1021.7 0.0
05/05:00am 0.9 -2.3 0.6 98 0.1 E 7 11 4 6 1020.3 1021.4 0.0
05/04:30am 1.4 -1.6 1.0 97 0.2 E 6 9 3 5 1020.4 1021.5 0.0
05/04:00am 1.7 -0.2 0.8 94 0.3 CALM 0 6 0 3 1020.5 1021.6 0.0
05/03:30am 2.2 0.0 1.2 93 0.4 ESE 2 7 1 4 1020.6 1021.7 0.0
05/03:00am 2.8 0.6 0.9 87 0.7 ENE 2 6 1 3 1020.6 1021.7 0.0
05/02:30am 3.9 0.9 1.1 82 1.1 SE 6 9 3 5 1020.9 1022.0 0.0
05/02:00am 5.8 1.8 2.8 81 1.3 NW 13 20 7 11 1020.7 1021.8 0.0
05/01:30am 5.3 2.0 2.3 81 1.3 NNW 9 15 5 8 1020.8 1021.9 0.0
05/01:00am 5.9 2.2 2.5 79 1.4 NNW 11 15 6 8 1020.8 1021.9 0.0
05/12:30am 6.2 2.2 2.7 78 1.5 NNW 13 20 7 11 1021.1 1022.1 0.0
05/12:00am 6.2 1.8 2.5 77 1.6 N 15 20 8 11 1021.1 1022.1 0.0
 
Date/Time
EST
Temp
°C
App
Temp
°C
Dew
Point
°C
Rel
Hum
%
Delta-T
°C
Wind Press
QNH
hPa
Press
MSL
hPa
Rain since
9am
mm
Dir  Spd
km/h
Gust
km/h
Spd
kts
Gust
kts
04/11:30pm 6.4 1.9 2.1 74 1.8 N 15 20 8 11 1021.2 1022.2 0.0
04/11:00pm 5.8 1.7 2.1 77 1.5 NNW 13 20 7 11 1021.1 1022.1 0.0
04/10:30pm 5.9 1.7 1.8 75 1.7 NNW 13 20 7 11 1021.1 1022.1 0.0
04/10:00pm 6.2 2.4 1.5 72 1.9 NNW 11 17 6 9 1021.1 1022.1 0.0
04/09:30pm 6.2 2.7 1.3 71 2.0 NNW 9 15 5 8 1021.4 1022.5 0.0
04/09:00pm 6.4 2.5 1.3 70 2.1 NW 11 17 6 9 1021.3 1022.4 0.0
04/08:30pm 7.0 2.7 1.1 66 2.4 WNW 13 19 7 10 1021.3 1022.4 0.0
04/08:00pm 7.4 3.1 1.3 65 2.5 WNW 13 19 7 10 1021.2 1022.2 0.0
04/07:30pm 7.4 3.5 1.3 65 2.6 NW 11 17 6 9 1020.9 1022.0 0.0
04/07:00pm 7.5 2.9 1.4 65 2.6 WNW 15 20 8 11 1020.7 1021.8 0.0
04/06:30pm 7.4 3.5 1.0 64 2.7 NW 11 20 6 11 1020.2 1021.3 0.0
04/06:00pm 7.8 3.5 1.0 62 2.8 WNW 13 20 7 11 1020.0 1021.1 0.0
04/05:30pm 8.3 4.0 1.2 61 3.0 WNW 13 20 7 11 1019.5 1020.5 0.0
04/05:00pm 9.2 4.6 1.4 58 3.3 WNW 15 24 8 13 1019.0 1020.1 0.0
04/04:30pm 11.0 7.5 1.0 50 4.3 NW 9 19 5 10 1018.7 1019.8 0.0
04/04:00pm 11.3 7.9 -0.8 43 5.0 NNW 7 11 4 6 1018.9 1020.0 0.0
04/03:30pm 11.6 8.3 0.1 45 4.9 NW 7 11 4 6 1019.4 1020.4 0.0
04/03:00pm 11.5 7.9 0.3 46 4.8 WNW 9 13 5 7 1018.9 1020.0 0.0
04/02:30pm 11.0 7.6 -0.5 45 4.8 WNW 7 11 4 6 1019.1 1020.2 0.0
04/02:00pm 10.7 7.4 0.2 48 4.4 W 7 13 4 7 1019.3 1020.3 0.0
04/01:30pm 10.0 7.0 0.6 52 4.0 W 6 11 3 6 1019.6 1020.6 0.0
04/01:00pm 10.1 6.9 0.7 52 4.0 WNW 7 9 4 5 1019.8 1020.8 0.0

Latest Capital City Observations: Canberra | Sydney | Melbourne | Brisbane | Adelaide | Perth | Hobart | Darwin

Other formats

Comma delimited format used in spreadsheet applications
http://www.bom.gov.au/fwo/IDN60903/IDN60903.94925.axf

JavaScript Object Notation format (JSON) in row-major order
http://www.bom.gov.au/fwo/IDN60903/IDN60903.94925.json

Data quality

Most of these data are generated automatically and are frequently updated. Quality checks on data are not normally performed. It is possible for incorrect values to appear. Refer to information at About Latest Weather Observations and please check the disclaimer before using these data.